createdAt,value
2023-03-27T00:00:04.640Z,981.30
2023-03-27T00:01:04.353Z,981.32
2023-03-27T00:02:04.383Z,981.34
2023-03-27T00:03:04.469Z,981.38
2023-03-27T00:04:04.393Z,981.40
2023-03-27T00:05:04.581Z,981.44
2023-03-27T00:06:04.376Z,981.48
2023-03-27T00:07:04.548Z,981.50
2023-03-27T00:08:04.554Z,981.54
2023-03-27T00:09:04.501Z,981.58
2023-03-27T00:10:05.252Z,981.60
2023-03-27T00:11:04.499Z,981.66
2023-03-27T00:12:04.376Z,981.68
2023-03-27T00:13:04.376Z,981.70
2023-03-27T00:14:04.452Z,981.74
2023-03-27T00:15:04.438Z,981.74
2023-03-27T00:16:05.090Z,981.81
2023-03-27T00:17:04.413Z,981.81
2023-03-27T00:18:04.477Z,981.85
2023-03-27T00:19:04.372Z,981.85
2023-03-27T00:20:03.677Z,981.85
2023-03-27T00:21:03.644Z,981.89
2023-03-27T00:22:03.650Z,981.93
2023-03-27T00:23:04.346Z,981.95
2023-03-27T00:24:04.299Z,981.95
2023-03-27T00:25:03.643Z,981.99
2023-03-27T00:26:04.326Z,982.01
2023-03-27T00:27:04.277Z,982.05
2023-03-27T00:28:04.315Z,982.13
2023-03-27T00:29:04.252Z,982.15
2023-03-27T00:30:03.652Z,982.21
2023-03-27T00:31:04.253Z,982.21
2023-03-27T00:32:04.227Z,982.22
2023-03-27T00:33:04.284Z,982.24
2023-03-27T00:34:04.156Z,982.37
2023-03-27T00:35:04.186Z,982.37
2023-03-27T00:36:04.227Z,982.41
2023-03-27T00:37:04.142Z,982.43
2023-03-27T00:38:04.142Z,982.46
2023-03-27T00:39:04.100Z,982.48
2023-03-27T00:40:04.106Z,982.52
2023-03-27T00:41:04.120Z,982.54
2023-03-27T00:42:04.080Z,982.58
2023-03-27T00:43:04.059Z,982.64
2023-03-27T00:44:04.064Z,982.64
2023-03-27T00:45:04.787Z,982.62
2023-03-27T00:46:04.069Z,982.66
2023-03-27T00:47:04.025Z,982.68
2023-03-27T00:48:04.035Z,982.70
2023-03-27T00:49:03.982Z,982.72
2023-03-27T00:50:03.968Z,982.74
2023-03-27T00:51:04.642Z,982.78
2023-03-27T00:52:04.620Z,982.80
2023-03-27T00:53:03.931Z,982.82
2023-03-27T00:54:03.183Z,982.84
2023-03-27T00:55:03.890Z,982.84
2023-03-27T00:56:04.574Z,982.84
2023-03-27T00:57:03.230Z,982.84
2023-03-27T00:58:03.859Z,982.88
2023-03-27T00:59:03.850Z,982.88
2023-03-27T01:00:03.232Z,982.91
2023-03-27T01:01:03.853Z,982.95
2023-03-27T01:02:03.418Z,982.95
2023-03-27T01:03:03.953Z,982.97
2023-03-27T01:04:03.797Z,982.99
2023-03-27T01:05:03.425Z,983.01
2023-03-27T01:06:03.761Z,983.03
2023-03-27T01:07:03.754Z,983.03
2023-03-27T01:08:03.407Z,983.05
2023-03-27T01:09:03.704Z,983.03
2023-03-27T01:10:03.137Z,983.05
2023-03-27T01:11:03.685Z,983.07
2023-03-27T01:12:03.715Z,983.11
2023-03-27T01:13:03.227Z,983.13
2023-03-27T01:14:03.690Z,983.15
2023-03-27T01:15:04.322Z,983.19
2023-03-27T01:16:03.348Z,983.21
2023-03-27T01:17:03.604Z,983.19
2023-03-27T01:18:03.442Z,983.23
2023-03-27T01:19:03.587Z,983.27
2023-03-27T01:20:04.309Z,983.31
2023-03-27T01:21:03.429Z,983.33
2023-03-27T01:22:03.549Z,983.37
2023-03-27T01:23:04.223Z,983.37
2023-03-27T01:24:03.437Z,983.40
2023-03-27T01:25:03.489Z,983.42
2023-03-27T01:26:03.444Z,983.44
2023-03-27T01:27:04.172Z,983.44
2023-03-27T01:28:03.466Z,983.44
2023-03-27T01:29:02.712Z,983.44
2023-03-27T01:30:04.162Z,983.42
2023-03-27T01:31:04.157Z,983.44
2023-03-27T01:32:03.423Z,983.46
2023-03-27T01:33:04.156Z,983.44
2023-03-27T01:34:04.123Z,983.50
2023-03-27T01:35:03.724Z,983.52
2023-03-27T01:36:04.096Z,983.56
2023-03-27T01:37:04.069Z,983.56
2023-03-27T01:38:04.054Z,983.58
2023-03-27T01:39:04.042Z,983.60
2023-03-27T01:40:04.035Z,983.64
2023-03-27T01:41:04.000Z,983.66
2023-03-27T01:42:03.268Z,983.66
2023-03-27T01:43:03.993Z,983.68
2023-03-27T01:44:03.970Z,983.70
2023-03-27T01:45:03.236Z,983.72
2023-03-27T01:46:03.940Z,983.74
2023-03-27T01:47:03.241Z,983.76
2023-03-27T01:48:02.523Z,983.78
2023-03-27T01:49:03.190Z,983.76
2023-03-27T01:50:03.142Z,983.76
2023-03-27T01:51:03.830Z,983.78
2023-03-27T01:52:03.136Z,983.78
2023-03-27T01:53:02.395Z,983.78
2023-03-27T01:54:03.114Z,983.78
2023-03-27T01:55:03.814Z,983.80
2023-03-27T01:56:03.075Z,983.80
2023-03-27T01:57:03.124Z,983.80
2023-03-27T01:58:03.738Z,983.82
2023-03-27T01:59:03.041Z,983.85
2023-03-27T02:00:17.930Z,983.89
2023-03-27T02:01:05.001Z,983.91
2023-03-27T02:02:03.020Z,983.93
2023-03-27T02:03:03.027Z,983.93
2023-03-27T02:04:02.972Z,983.97
2023-03-27T02:05:02.995Z,983.99
2023-03-27T02:06:02.924Z,983.99
2023-03-27T02:07:02.927Z,984.01
2023-03-27T02:08:02.924Z,984.01
2023-03-27T02:09:02.471Z,984.03
2023-03-27T02:10:03.572Z,984.05
2023-03-27T02:11:02.858Z,984.07
2023-03-27T02:12:02.873Z,984.11
2023-03-27T02:13:02.879Z,984.15
2023-03-27T02:14:02.844Z,984.17
2023-03-27T02:15:23.848Z,984.19
2023-03-27T02:16:03.859Z,984.21
2023-03-27T02:17:02.802Z,984.19
2023-03-27T02:18:02.823Z,984.25
2023-03-27T02:19:02.778Z,984.25
2023-03-27T02:23:32.600Z,984.38
2023-03-27T02:24:31.398Z,984.36
2023-03-27T02:25:31.153Z,984.36
2023-03-27T02:26:32.068Z,984.38
2023-03-27T02:27:31.357Z,984.42
2023-03-27T02:28:32.062Z,984.46
2023-03-27T02:29:31.368Z,984.48
2023-03-27T02:30:32.049Z,984.52
2023-03-27T02:31:33.996Z,984.54
2023-03-27T02:32:32.059Z,984.52
2023-03-27T02:33:31.321Z,984.54
2023-03-27T02:34:32.012Z,984.54
2023-03-27T02:35:31.269Z,984.54
2023-03-27T02:36:31.218Z,984.54
2023-03-27T02:37:32.266Z,984.58
2023-03-27T02:38:31.209Z,984.64
2023-03-27T02:39:31.198Z,984.70
2023-03-27T02:40:31.198Z,984.74
2023-03-27T02:41:31.151Z,984.76
2023-03-27T02:42:31.162Z,984.81
2023-03-27T02:43:31.169Z,984.79
2023-03-27T02:44:31.804Z,984.79
2023-03-27T02:45:31.141Z,984.85
2023-03-27T02:46:31.080Z,984.83
2023-03-27T02:47:31.143Z,984.83
2023-03-27T02:48:30.495Z,984.98
2023-03-27T02:49:31.060Z,984.96
2023-03-27T02:50:31.055Z,985.00
2023-03-27T02:51:31.009Z,985.01
2023-03-27T02:52:31.256Z,985.05
2023-03-27T02:53:31.689Z,985.09
2023-03-27T02:54:31.006Z,985.13
2023-03-27T02:55:30.981Z,985.19
2023-03-27T02:56:30.514Z,985.19
2023-03-27T02:57:30.963Z,985.23
2023-03-27T02:58:30.985Z,985.21
2023-03-27T02:59:31.587Z,985.21
2023-03-27T03:00:30.929Z,985.23
2023-03-27T03:01:30.910Z,985.23
2023-03-27T03:02:30.962Z,985.29
2023-03-27T03:03:30.923Z,985.31
2023-03-27T03:04:30.422Z,985.31
2023-03-27T03:05:30.853Z,985.31
2023-03-27T03:06:30.833Z,985.31
2023-03-27T03:07:30.823Z,985.33
2023-03-27T03:08:30.707Z,985.37
2023-03-27T03:09:31.544Z,985.39
2023-03-27T03:10:30.785Z,985.43
2023-03-27T03:11:31.453Z,985.41
2023-03-27T03:12:30.526Z,985.43
2023-03-27T03:13:31.424Z,985.43
2023-03-27T03:14:30.733Z,985.47
2023-03-27T03:15:30.189Z,985.52
2023-03-27T03:16:31.422Z,985.56
2023-03-27T03:17:30.714Z,985.58
2023-03-27T03:18:30.674Z,985.54
2023-03-27T03:19:30.663Z,985.54
2023-03-27T03:20:30.531Z,985.60
2023-03-27T03:21:31.332Z,985.64
2023-03-27T03:22:30.624Z,985.64
2023-03-27T03:23:30.610Z,985.66
2023-03-27T03:24:30.600Z,985.66
2023-03-27T03:25:30.583Z,985.70
2023-03-27T03:26:30.566Z,985.72
2023-03-27T03:27:30.553Z,985.74
2023-03-27T03:28:29.811Z,985.78
2023-03-27T03:29:30.537Z,985.82
2023-03-27T03:30:30.560Z,985.84
2023-03-27T03:31:29.805Z,985.88
2023-03-27T03:32:30.616Z,985.92
2023-03-27T03:33:30.472Z,985.97
2023-03-27T03:34:30.490Z,986.03
2023-03-27T03:35:30.494Z,986.05
2023-03-27T03:36:30.433Z,986.09
2023-03-27T03:37:31.162Z,986.13
2023-03-27T03:38:30.415Z,986.13
2023-03-27T03:39:31.166Z,986.21
2023-03-27T03:40:30.382Z,986.23
2023-03-27T03:41:30.372Z,986.29
2023-03-27T03:42:30.594Z,986.31
2023-03-27T03:43:30.385Z,986.33
2023-03-27T03:44:30.346Z,986.37
2023-03-27T03:45:30.315Z,986.43
2023-03-27T03:46:30.332Z,986.45
2023-03-27T03:47:30.284Z,986.49
2023-03-27T03:48:30.493Z,986.50
2023-03-27T03:49:30.266Z,986.50
2023-03-27T03:50:30.265Z,986.54
2023-03-27T03:51:30.233Z,986.52
2023-03-27T03:52:30.207Z,986.54
2023-03-27T03:53:30.222Z,986.58
2023-03-27T03:54:30.192Z,986.58
2023-03-27T03:55:30.171Z,986.62
2023-03-27T03:56:30.187Z,986.60
2023-03-27T03:57:30.116Z,986.62
2023-03-27T03:58:34.676Z,986.64
2023-03-27T03:59:31.132Z,986.68
2023-03-27T04:00:30.118Z,986.72
2023-03-27T04:01:30.126Z,986.76
2023-03-27T04:02:30.205Z,986.82
2023-03-27T04:03:30.134Z,986.84
2023-03-27T04:04:30.090Z,986.91
2023-03-27T04:05:30.044Z,986.93
2023-03-27T04:06:30.044Z,986.97
2023-03-27T04:07:29.985Z,987.01
2023-03-27T04:08:29.997Z,987.01
2023-03-27T04:09:30.652Z,987.05
2023-03-27T04:10:29.965Z,987.03
2023-03-27T04:11:30.632Z,987.07
2023-03-27T04:12:29.915Z,987.07
2023-03-27T04:13:29.952Z,987.11
2023-03-27T04:14:29.906Z,987.11
2023-03-27T04:15:29.897Z,987.11
2023-03-27T04:16:30.704Z,987.17
2023-03-27T04:17:29.926Z,987.17
2023-03-27T04:18:29.898Z,987.21
2023-03-27T04:19:29.854Z,987.25
2023-03-27T04:20:29.833Z,987.27
2023-03-27T04:21:29.856Z,987.29
2023-03-27T04:22:29.590Z,987.29
2023-03-27T04:23:29.570Z,987.33
2023-03-27T04:24:29.773Z,987.35
2023-03-27T04:25:29.781Z,987.37
2023-03-27T04:26:29.936Z,987.39
2023-03-27T04:27:29.776Z,987.41
2023-03-27T04:28:29.590Z,987.51
2023-03-27T04:29:29.706Z,987.57
2023-03-27T04:30:29.696Z,987.61
2023-03-27T04:31:29.709Z,987.65
2023-03-27T04:32:29.683Z,987.66
2023-03-27T04:33:30.596Z,987.65
2023-03-27T04:34:29.666Z,987.65
2023-03-27T04:35:29.141Z,987.65
2023-03-27T04:36:31.217Z,987.66
2023-03-27T04:37:29.601Z,987.66
2023-03-27T04:38:29.818Z,987.68
2023-03-27T04:39:29.625Z,987.70
2023-03-27T04:40:29.592Z,987.70
2023-03-27T04:41:30.228Z,987.72
2023-03-27T04:42:29.311Z,987.76
2023-03-27T04:43:29.527Z,987.80
2023-03-27T04:44:30.193Z,987.82
2023-03-27T04:45:29.500Z,987.82
2023-03-27T04:46:29.531Z,987.84
2023-03-27T04:47:29.509Z,987.86
2023-03-27T04:48:29.432Z,987.86
2023-03-27T04:49:29.455Z,987.84
2023-03-27T04:50:29.432Z,987.88
2023-03-27T04:51:29.424Z,987.90
2023-03-27T04:52:30.126Z,987.94
2023-03-27T04:53:30.214Z,988.00
2023-03-27T04:54:30.105Z,988.02
2023-03-27T04:55:29.377Z,988.02
2023-03-27T04:56:29.352Z,988.04
2023-03-27T04:57:29.348Z,988.06
2023-03-27T04:58:29.388Z,988.10
2023-03-27T04:59:29.357Z,988.12
2023-03-27T05:00:29.976Z,988.13
2023-03-27T05:01:29.363Z,988.15
2023-03-27T05:02:29.322Z,988.19
2023-03-27T05:03:29.308Z,988.19
2023-03-27T05:04:29.260Z,988.23
2023-03-27T05:05:29.242Z,988.29
2023-03-27T05:06:29.218Z,988.31
2023-03-27T05:07:29.222Z,988.33
2023-03-27T05:08:29.176Z,988.35
2023-03-27T05:09:29.189Z,988.39
2023-03-27T05:10:29.183Z,988.41
2023-03-27T05:11:29.366Z,988.47
2023-03-27T05:12:29.176Z,988.51
2023-03-27T05:13:29.118Z,988.53
2023-03-27T05:14:29.108Z,988.53
2023-03-27T05:15:29.089Z,988.55
2023-03-27T05:16:29.178Z,988.59
2023-03-27T05:17:29.097Z,988.62
2023-03-27T05:18:29.028Z,988.64
2023-03-27T05:19:29.072Z,988.66
2023-03-27T05:20:29.038Z,988.70
2023-03-27T05:21:29.016Z,988.70
2023-03-27T05:22:29.257Z,988.74
2023-03-27T05:23:28.971Z,988.76
2023-03-27T05:24:28.971Z,988.76
2023-03-27T05:25:28.989Z,988.78
2023-03-27T05:26:29.628Z,988.78
2023-03-27T05:27:28.926Z,988.84
2023-03-27T05:28:28.897Z,988.82
2023-03-27T05:29:28.939Z,988.84
2023-03-27T05:30:28.958Z,988.90
2023-03-27T05:31:28.901Z,988.92
2023-03-27T05:32:28.671Z,988.94
2023-03-27T05:33:28.821Z,988.92
2023-03-27T05:34:28.658Z,988.96
2023-03-27T05:35:28.874Z,988.96
2023-03-27T05:36:28.808Z,989.00
2023-03-27T05:37:28.814Z,989.02
2023-03-27T05:38:28.756Z,989.06
2023-03-27T05:39:28.643Z,989.09
2023-03-27T05:40:28.653Z,989.11
2023-03-27T05:41:28.740Z,989.13
2023-03-27T05:42:28.738Z,989.15
2023-03-27T05:43:28.701Z,989.15
2023-03-27T05:44:28.932Z,989.13
2023-03-27T05:45:28.732Z,989.17
2023-03-27T05:46:28.744Z,989.17
2023-03-27T05:47:28.683Z,989.19
2023-03-27T05:48:27.929Z,989.19
2023-03-27T05:49:28.644Z,989.25
2023-03-27T05:50:28.634Z,989.29
2023-03-27T05:51:28.609Z,989.31
2023-03-27T05:52:28.932Z,989.33
2023-03-27T05:53:29.263Z,989.33
2023-03-27T05:54:28.571Z,989.35
2023-03-27T05:55:28.731Z,989.37
2023-03-27T05:56:27.914Z,989.37
2023-03-27T05:57:28.552Z,989.39
2023-03-27T05:58:28.521Z,989.41
2023-03-27T05:59:28.479Z,989.47
2023-03-27T06:00:28.621Z,989.47
2023-03-27T06:01:28.471Z,989.49
2023-03-27T06:02:28.506Z,989.49
2023-03-27T06:03:28.583Z,989.51
2023-03-27T06:04:28.530Z,989.51
2023-03-27T06:05:28.419Z,989.51
2023-03-27T06:06:29.151Z,989.53
2023-03-27T06:07:28.389Z,989.56
2023-03-27T06:08:28.378Z,989.54
2023-03-27T06:09:28.354Z,989.54
2023-03-27T06:10:28.359Z,989.56
2023-03-27T06:11:28.352Z,989.58
2023-03-27T06:12:28.337Z,989.62
2023-03-27T06:13:28.314Z,989.66
2023-03-27T06:14:28.282Z,989.68
2023-03-27T06:15:28.417Z,989.70
2023-03-27T06:16:28.335Z,989.74
2023-03-27T06:17:29.025Z,989.78
2023-03-27T06:18:28.283Z,989.82
2023-03-27T06:19:28.215Z,989.82
2023-03-27T06:20:28.229Z,989.88
2023-03-27T06:21:28.237Z,989.88
2023-03-27T06:22:28.245Z,989.94
2023-03-27T06:23:28.861Z,989.96
2023-03-27T06:24:28.174Z,989.96
2023-03-27T06:25:28.842Z,989.96
2023-03-27T06:26:28.840Z,989.98
2023-03-27T06:27:28.148Z,990.00
2023-03-27T06:28:28.165Z,990.08
2023-03-27T06:29:28.083Z,990.10
2023-03-27T06:30:28.107Z,990.10
2023-03-27T06:31:28.124Z,990.14
2023-03-27T06:32:28.099Z,990.14
2023-03-27T06:33:28.063Z,990.16
2023-03-27T06:34:28.017Z,990.22
2023-03-27T06:35:28.020Z,990.23
2023-03-27T06:36:27.744Z,990.27
2023-03-27T06:37:28.005Z,990.29
2023-03-27T06:38:27.991Z,990.33
2023-03-27T06:39:28.710Z,990.33
2023-03-27T06:40:28.224Z,990.33
2023-03-27T06:41:27.954Z,990.37
2023-03-27T06:42:27.936Z,990.39
2023-03-27T06:43:27.682Z,990.39
2023-03-27T06:44:27.687Z,990.41
2023-03-27T06:45:27.708Z,990.45
2023-03-27T06:46:42.786Z,990.45
2023-03-27T06:47:28.911Z,990.47
2023-03-27T06:48:27.890Z,990.53
2023-03-27T06:49:27.823Z,990.55
2023-03-27T06:50:27.849Z,990.59
2023-03-27T06:51:27.291Z,990.57
2023-03-27T06:52:27.347Z,990.61
2023-03-27T06:53:28.834Z,990.63
2023-03-27T06:54:27.756Z,990.65
2023-03-27T06:55:27.088Z,990.69
2023-03-27T06:56:28.424Z,990.71
2023-03-27T06:57:27.739Z,990.71
2023-03-27T06:58:27.582Z,990.71
2023-03-27T06:59:27.173Z,990.73
2023-03-27T07:00:27.755Z,990.71
2023-03-27T07:01:27.640Z,990.71
2023-03-27T07:02:27.693Z,990.75
2023-03-27T07:03:27.673Z,990.73
2023-03-27T07:04:28.374Z,990.73
2023-03-27T07:05:28.350Z,990.77
2023-03-27T07:06:27.837Z,990.75
2023-03-27T07:07:27.585Z,990.77
2023-03-27T07:08:28.311Z,990.80
2023-03-27T07:09:28.306Z,990.78
2023-03-27T07:10:28.285Z,990.82
2023-03-27T07:11:30.646Z,990.84
2023-03-27T07:12:28.275Z,990.86
2023-03-27T07:13:28.231Z,990.90
2023-03-27T07:14:28.239Z,990.92
2023-03-27T07:15:28.204Z,990.98
2023-03-27T07:16:27.652Z,990.98
2023-03-27T07:17:34.885Z,991.02
2023-03-27T07:18:28.461Z,991.04
2023-03-27T07:19:27.413Z,991.04
2023-03-27T07:20:27.470Z,991.10
2023-03-27T07:21:27.400Z,991.10
2023-03-27T07:22:27.395Z,991.08
2023-03-27T07:23:27.370Z,991.10
2023-03-27T07:24:27.357Z,991.12
2023-03-27T07:25:27.322Z,991.10
2023-03-27T07:26:27.344Z,991.16
2023-03-27T07:27:27.316Z,991.20
2023-03-27T07:28:27.354Z,991.20
2023-03-27T07:29:27.306Z,991.22
2023-03-27T07:30:27.244Z,991.25
2023-03-27T07:31:40.328Z,991.29
2023-03-27T07:32:36.680Z,991.31
2023-03-27T07:33:28.333Z,991.31
2023-03-27T07:34:27.212Z,991.35
2023-03-27T07:35:27.207Z,991.37
2023-03-27T07:36:27.878Z,991.39
2023-03-27T07:37:27.193Z,991.41
2023-03-27T07:38:27.171Z,991.41
2023-03-27T07:39:27.173Z,991.41
2023-03-27T07:40:38.838Z,991.47
2023-03-27T07:41:28.130Z,991.49
2023-03-27T07:42:27.108Z,991.49
2023-03-27T07:43:27.109Z,991.47
2023-03-27T07:44:27.129Z,991.47
2023-03-27T07:45:27.073Z,991.49
2023-03-27T07:46:27.078Z,991.47
2023-03-27T07:47:27.075Z,991.49
2023-03-27T07:48:27.032Z,991.53
2023-03-27T07:49:39.287Z,991.55
2023-03-27T07:50:28.696Z,991.57
2023-03-27T07:51:26.988Z,991.59
2023-03-27T07:52:26.762Z,991.59
2023-03-27T07:53:33.345Z,991.61
2023-03-27T07:54:27.950Z,991.61
2023-03-27T07:55:26.939Z,991.63
2023-03-27T07:56:26.931Z,991.63
2023-03-27T07:57:27.010Z,991.65
2023-03-27T07:58:27.131Z,991.65
2023-03-27T07:59:26.331Z,991.65
2023-03-27T08:00:27.554Z,991.65
2023-03-27T08:01:26.853Z,991.67
2023-03-27T08:02:26.749Z,991.69
2023-03-27T08:03:26.840Z,991.69
2023-03-27T08:04:26.874Z,991.69
2023-03-27T08:05:26.772Z,991.74
2023-03-27T08:06:26.822Z,991.78
2023-03-27T08:07:26.034Z,991.78
2023-03-27T08:08:26.759Z,991.76
2023-03-27T08:09:26.783Z,991.76
2023-03-27T08:10:26.718Z,991.76
2023-03-27T08:11:30.582Z,991.78
2023-03-27T08:12:27.622Z,991.82
2023-03-27T08:13:26.694Z,991.82
2023-03-27T08:14:26.672Z,991.80
2023-03-27T08:15:26.645Z,991.78
2023-03-27T08:16:26.675Z,991.82
2023-03-27T08:17:27.504Z,991.82
2023-03-27T08:18:26.646Z,991.82
2023-03-27T08:19:26.017Z,991.82
2023-03-27T08:20:26.558Z,991.86
2023-03-27T08:21:26.584Z,991.86
2023-03-27T08:22:27.252Z,991.88
2023-03-27T08:23:26.548Z,991.88
2023-03-27T08:24:26.534Z,991.88
2023-03-27T08:25:27.209Z,991.90
2023-03-27T08:26:26.550Z,991.88
2023-03-27T08:27:25.753Z,991.84
2023-03-27T08:28:26.476Z,991.88
2023-03-27T08:29:26.461Z,991.86
2023-03-27T08:30:26.440Z,991.90
2023-03-27T08:31:26.501Z,991.90
2023-03-27T08:32:26.442Z,991.90
2023-03-27T08:33:26.416Z,991.88
2023-03-27T08:34:26.394Z,991.92
2023-03-27T08:35:25.716Z,991.90
2023-03-27T08:36:26.371Z,991.90
2023-03-27T08:37:26.365Z,991.88
2023-03-27T08:38:27.134Z,991.90
2023-03-27T08:39:26.315Z,991.94
2023-03-27T08:40:26.412Z,991.96
2023-03-27T08:41:26.302Z,991.94
2023-03-27T08:42:26.276Z,991.94
2023-03-27T08:43:25.543Z,991.96
2023-03-27T08:44:26.251Z,991.96
2023-03-27T08:45:26.940Z,991.94
2023-03-27T08:46:26.323Z,991.96
2023-03-27T08:47:26.236Z,991.96
2023-03-27T08:48:26.195Z,992.00
2023-03-27T08:49:26.265Z,992.02
2023-03-27T08:50:26.159Z,992.02
2023-03-27T08:51:25.442Z,992.02
2023-03-27T08:52:26.152Z,992.04
2023-03-27T08:53:29.018Z,992.00
2023-03-27T08:54:26.154Z,992.02
2023-03-27T08:55:26.118Z,991.98
2023-03-27T08:56:26.085Z,992.00
2023-03-27T08:57:25.805Z,992.04
2023-03-27T08:58:25.785Z,992.06
2023-03-27T08:59:25.423Z,992.08
2023-03-27T09:00:26.017Z,992.08
2023-03-27T09:01:26.457Z,992.12
2023-03-27T09:02:25.850Z,992.14
2023-03-27T09:03:26.108Z,992.14
2023-03-27T09:04:25.984Z,992.16
2023-03-27T09:05:25.940Z,992.18
2023-03-27T09:06:25.968Z,992.18
2023-03-27T09:07:25.196Z,992.18
2023-03-27T09:08:25.283Z,992.19
2023-03-27T09:09:25.916Z,992.18
2023-03-27T09:10:25.874Z,992.23
2023-03-27T09:11:25.375Z,992.19
2023-03-27T09:12:26.579Z,992.18
2023-03-27T09:13:25.861Z,992.18
2023-03-27T09:14:25.954Z,992.21
2023-03-27T09:15:25.097Z,992.21
2023-03-27T09:16:25.866Z,992.19
2023-03-27T09:17:25.873Z,992.21
2023-03-27T09:18:25.565Z,992.23
2023-03-27T09:19:25.827Z,992.21
2023-03-27T09:20:25.770Z,992.18
2023-03-27T09:21:25.741Z,992.16
2023-03-27T09:22:26.412Z,992.12
2023-03-27T09:23:26.449Z,992.16
2023-03-27T09:24:26.449Z,992.16
2023-03-27T09:25:26.446Z,992.14
2023-03-27T09:26:26.424Z,992.14
2023-03-27T09:27:26.380Z,992.12
2023-03-27T09:28:26.365Z,992.14
2023-03-27T09:29:26.358Z,992.18
2023-03-27T09:30:25.648Z,992.19
2023-03-27T09:31:25.680Z,992.21
2023-03-27T09:32:26.355Z,992.23
2023-03-27T09:33:26.581Z,992.23
2023-03-27T09:34:25.559Z,992.19
2023-03-27T09:35:25.601Z,992.19
2023-03-27T09:36:25.518Z,992.19
2023-03-27T09:37:25.519Z,992.18
2023-03-27T09:38:25.500Z,992.16
2023-03-27T09:39:25.494Z,992.14
2023-03-27T09:40:26.149Z,992.12
2023-03-27T09:41:25.440Z,992.16
2023-03-27T09:42:25.461Z,992.18
2023-03-27T09:43:25.431Z,992.18
2023-03-27T09:44:25.559Z,992.18
2023-03-27T09:45:25.422Z,992.19
2023-03-27T09:46:25.393Z,992.21
2023-03-27T09:47:24.869Z,992.21
2023-03-27T09:48:25.367Z,992.19
2023-03-27T09:49:25.394Z,992.21
2023-03-27T09:50:27.109Z,992.19
2023-03-27T09:51:25.309Z,992.21
2023-03-27T09:52:25.309Z,992.21
2023-03-27T09:53:25.295Z,992.21
2023-03-27T09:54:25.306Z,992.21
2023-03-27T09:55:25.971Z,992.23
2023-03-27T09:56:25.226Z,992.21
2023-03-27T09:57:25.249Z,992.23
2023-03-27T09:58:25.228Z,992.23
2023-03-27T09:59:25.242Z,992.23
2023-03-27T10:00:25.214Z,992.23
2023-03-27T10:01:25.214Z,992.23
2023-03-27T10:02:25.206Z,992.29
2023-03-27T10:03:24.578Z,992.33
2023-03-27T10:04:24.840Z,992.35
2023-03-27T10:05:25.133Z,992.33
2023-03-27T10:06:25.100Z,992.33
2023-03-27T10:07:25.786Z,992.31
2023-03-27T10:08:26.758Z,992.35
2023-03-27T10:09:24.853Z,992.35
2023-03-27T10:10:24.854Z,992.39
2023-03-27T10:11:24.843Z,992.41
2023-03-27T10:12:25.028Z,992.39
2023-03-27T10:13:25.022Z,992.37
2023-03-27T10:14:25.025Z,992.37
2023-03-27T10:15:25.003Z,992.37
2023-03-27T10:16:25.759Z,992.41
2023-03-27T10:17:24.989Z,992.39
2023-03-27T10:18:24.860Z,992.39
2023-03-27T10:19:24.875Z,992.33
2023-03-27T10:20:24.916Z,992.33
2023-03-27T10:21:24.885Z,992.35
2023-03-27T10:22:24.150Z,992.39
2023-03-27T10:23:24.958Z,992.41
2023-03-27T10:24:24.874Z,992.45
2023-03-27T10:25:24.852Z,992.45
2023-03-27T10:26:24.116Z,992.45
2023-03-27T10:27:24.133Z,992.41
2023-03-27T10:28:24.808Z,992.43
2023-03-27T10:29:25.472Z,992.45
2023-03-27T10:30:24.827Z,992.43
2023-03-27T10:31:24.773Z,992.43
2023-03-27T10:32:25.506Z,992.43
2023-03-27T10:33:24.741Z,992.41
2023-03-27T10:34:25.390Z,992.43
2023-03-27T10:35:24.271Z,992.41
2023-03-27T10:36:24.703Z,992.45
2023-03-27T10:37:24.668Z,992.43
2023-03-27T10:38:24.694Z,992.43
2023-03-27T10:39:25.529Z,992.47
2023-03-27T10:40:25.349Z,992.49
2023-03-27T10:41:31.599Z,992.45
2023-03-27T10:42:25.595Z,992.47
2023-03-27T10:43:24.648Z,992.47
2023-03-27T10:44:24.590Z,992.45
2023-03-27T10:45:25.462Z,992.43
2023-03-27T10:46:24.595Z,992.43
2023-03-27T10:47:25.275Z,992.37
2023-03-27T10:48:24.522Z,992.35
2023-03-27T10:49:24.524Z,992.35
2023-03-27T10:50:24.508Z,992.35
2023-03-27T10:51:26.575Z,992.39
2023-03-27T10:52:25.517Z,992.39
2023-03-27T10:53:24.608Z,992.39
2023-03-27T10:54:24.521Z,992.35
2023-03-27T10:55:24.444Z,992.35
2023-03-27T10:56:24.435Z,992.33
2023-03-27T10:57:24.393Z,992.29
2023-03-27T10:58:24.395Z,992.23
2023-03-27T11:00:25.371Z,992.23
2023-03-27T11:01:24.394Z,992.23
2023-03-27T11:02:24.312Z,992.23
2023-03-27T11:03:24.344Z,992.19
2023-03-27T11:03:47.542Z,992.23
2023-03-27T11:04:24.365Z,992.19
2023-03-27T11:05:24.286Z,992.23
2023-03-27T11:06:24.406Z,992.23
2023-03-27T11:07:24.263Z,992.27
2023-03-27T11:08:24.252Z,992.25
2023-03-27T11:09:24.969Z,992.29
2023-03-27T11:10:24.247Z,992.31
2023-03-27T11:11:24.207Z,992.33
2023-03-27T11:12:24.170Z,992.39
2023-03-27T11:13:24.192Z,992.43
2023-03-27T11:14:24.169Z,992.41
2023-03-27T11:15:24.208Z,992.45
2023-03-27T11:16:23.948Z,992.43
2023-03-27T11:17:23.914Z,992.37
2023-03-27T11:18:25.790Z,992.39
2023-03-27T11:19:24.093Z,992.41
2023-03-27T11:20:26.261Z,992.41
2023-03-27T11:21:23.897Z,992.41
2023-03-27T11:22:24.035Z,992.47
2023-03-27T11:23:23.900Z,992.51
2023-03-27T11:24:23.900Z,992.49
2023-03-27T11:25:24.070Z,992.55
2023-03-27T11:26:23.285Z,992.65
2023-03-27T11:27:23.965Z,992.67
2023-03-27T11:28:23.977Z,992.67
2023-03-27T11:29:23.328Z,992.65
2023-03-27T11:30:23.359Z,992.55
2023-03-27T11:31:23.952Z,992.57
2023-03-27T11:32:23.429Z,992.57
2023-03-27T11:33:23.872Z,992.53
2023-03-27T11:34:28.889Z,992.53
2023-03-27T11:35:24.877Z,992.57
2023-03-27T11:36:23.855Z,992.55
2023-03-27T11:37:23.863Z,992.65
2023-03-27T11:38:23.588Z,992.67
2023-03-27T11:39:23.819Z,992.65
2023-03-27T11:40:24.516Z,992.65
2023-03-27T11:41:23.788Z,992.67
2023-03-27T11:42:23.782Z,992.65
2023-03-27T11:43:24.509Z,992.55
2023-03-27T11:44:24.474Z,992.65
2023-03-27T11:45:24.476Z,992.65
2023-03-27T11:46:24.541Z,992.65
2023-03-27T11:47:24.382Z,992.65
2023-03-27T11:48:24.453Z,992.67
2023-03-27T11:49:24.410Z,992.69
2023-03-27T11:50:24.347Z,992.67
2023-03-27T11:51:23.693Z,992.69
2023-03-27T11:52:24.321Z,992.69
2023-03-27T11:53:24.333Z,992.75
2023-03-27T11:54:22.890Z,992.75
2023-03-27T11:55:23.605Z,992.79
2023-03-27T11:56:23.626Z,992.81
2023-03-27T11:57:23.631Z,992.81
2023-03-27T11:58:24.240Z,992.87
2023-03-27T11:59:23.562Z,992.81
2023-03-27T12:00:23.546Z,992.83
2023-03-27T12:01:23.527Z,992.83
2023-03-27T12:02:23.016Z,992.81
2023-03-27T12:03:23.568Z,992.83
2023-03-27T12:04:24.180Z,992.81
2023-03-27T12:05:23.459Z,992.81
2023-03-27T12:06:24.120Z,992.79
2023-03-27T12:07:35.172Z,992.77
2023-03-27T12:08:25.901Z,992.75
2023-03-27T12:09:23.443Z,992.73
2023-03-27T12:10:28.421Z,992.71
2023-03-27T12:11:24.378Z,992.69
2023-03-27T12:12:23.375Z,992.73
2023-03-27T12:13:28.815Z,992.73
2023-03-27T12:14:30.991Z,992.71
2023-03-27T12:15:24.337Z,992.73
2023-03-27T12:16:23.333Z,992.75
2023-03-27T12:17:23.996Z,992.73
2023-03-27T12:18:32.323Z,992.73
2023-03-27T12:19:28.885Z,992.75
2023-03-27T12:20:24.253Z,992.77
2023-03-27T12:21:23.250Z,992.87
2023-03-27T12:22:24.339Z,992.90
2023-03-27T12:23:23.188Z,992.94
2023-03-27T12:24:23.208Z,992.96
2023-03-27T12:25:22.956Z,992.98
2023-03-27T12:26:22.948Z,993.06
2023-03-27T12:27:22.954Z,993.06
2023-03-27T12:28:23.661Z,993.10
2023-03-27T12:29:24.454Z,993.08
2023-03-27T12:30:23.143Z,993.08
2023-03-27T12:31:23.129Z,993.08